aviador You're here:

KFPR Decoded Metar

FORT PIERCE in FL, USA
Report Time2018-02-25 10:53:00
UTC Time2018-02-25 11:17:05
Flight Rules vfr VFR
WindCalm
Visibility9999 m
Phenomena:N/A
Clouds:N/A
CeilingNone
Temp17°C (ISA +2)
Dew Point17°C (100% RH)
QNH1021 hPa
Density Alt276 ft
Elevation43 ft
Report Wrong Elevation
Raw Report
METAR KFPR 251053Z AUTO 00000KT 10SM CLR 17/17 A3016 RMK AO2 SLP214
T01670167=

Extra information for KFPR:More info

Metar Taf Metar & Taf Last 4 Metars F.Rules Stats Wind Profile Meteogram Temp Stats Airport Information Weather charts Add Link Nearby VenuesMetar ALERT Operation Metar Decoded Social comments

AIRNAV info for KFPR